Eastern Iowa Airport (CID)


Airport Diagram
Current Weather/Forecast (VFR Conditions)
METAR KCID 171607Z 30011G21KT 10SM -RA FEW026 SCT047 BKN060 23/18 A3010 RMK AO2 RAB06 P0000 T02280178
TAF KCID 171520Z 1715/1812 17007KT P6SM SCT080 TEMPO 1715/1718 6SM -TSRA BR OVC050CB FM171800 28008KT P6SM SCT080 FM172000 32009KT P6SM BKN090 FM172300 35008KT P6SM BKN150

All Charts
General
Chart Name Download
AIRPORT DIAGRAM
TAKEOFF MINIMUMS
ALTERNATE MINIMUMS
HOT SPOT

Approaches
Chart Name Download
ILS OR LOC RWY 09
ILS OR LOC RWY 27
RNAV (GPS) RWY 09
RNAV (GPS) RWY 13
RNAV (GPS) RWY 27
RNAV (GPS) RWY 31